Buoy 54955

sailwx.info

Track history (hours):
 
Tides and Currents Weather Stations Pressure Air Temp Water Temp Dewpoint Dewpoint Depression Visibility Wind Speed Wind Dir Waves Ship Positions

Luruyu54955

Last reported at 2016-Feb-08 12:00 UTC. Time now 2016-Feb-08 14:27 UTC.
Position S 37°56' W 160°29'.

Length 27 m.

Type: Fishing. MMSI: 412330945.

Barometer 1007.9 mb
Water temperature 20.6 ° C

Date/timePositionNaut miles runAvg speedWind from/ knotsBaromVisibWave heightAir tempDewpointWater temp
2016-Feb-08 12:00S 37°56' W 160°29'1 0.2 1007.9 20.6
2016-Feb-08 08:00S 37°55' W 160°29'1 1.0 1009.1 20.6
2016-Feb-08 07:00S 37°54' W 160°30'1 0.5 1009.3 20.6
2016-Feb-08 06:00S 37°54' W 160°30'1 0.6 1008.8 20.6
2016-Feb-08 04:00S 37°54' W 160°31'1 1.2 1008.6 20.7
2016-Feb-08 03:00S 37°53' W 160°30'0 0.0 1009.0 20.7
2016-Feb-08 02:00S 37°53' W 160°30'1 0.9 1009.1 20.7
2016-Feb-08 01:00S 37°53' W 160°29'0 0.0 1009.3 20.7
2016-Feb-08 00:00S 37°53' W 160°29'1 0.3 1009.5 20.6
2016-Feb-07 19:00S 37°51' W 160°29'1 0.6 1011.0 20.5
2016-Feb-07 18:00S 37°52' W 160°29'0 0.3 1010.7 20.5
2016-Feb-07 17:00S 37°52' W 160°29'1 0.7 1010.6 20.5
2016-Feb-07 15:00S 37°52' W 160°31'0 0.0 1010.2 20.5
2016-Feb-07 14:00S 37°52' W 160°31'2 0.5 1009.7 20.5
2016-Feb-07 10:00S 37°51' W 160°33'2 0.6 1010.1 20.5
2016-Feb-07 07:00S 37°49' W 160°32'0 0.0 1010.0 20.6
2016-Feb-07 06:00S 37°49' W 160°32'0 0.4 1009.3 20.7
2016-Feb-07 05:00S 37°49' W 160°32'1 0.4 1008.9 20.7
2016-Feb-07 03:00S 37°49' W 160°31'0 0.4 1008.8 21.0
2016-Feb-07 02:00S 37°49' W 160°31'0 0.3 1008.8 21.2
2016-Feb-07 01:00S 37°49' W 160°31'2 0.4 1009.0 21.1
2016-Feb-06 20:00S 37°50' W 160°33'2 0.9 1009.8 20.5
2016-Feb-06 18:00S 37°50' W 160°35'1 1.1 1010.3 20.4
2016-Feb-06 17:00S 37°48' W 160°35'0 0.2 1009.6 20.4
2016-Feb-06 16:00S 37°48' W 160°35'1 1.0 1009.7 20.4
2016-Feb-06 15:00S 37°47' W 160°35'1 1.0 1009.6 20.4
2016-Feb-06 14:00S 37°48' W 160°34'0 0.0 1009.9 20.4
2016-Feb-06 13:00S 37°48' W 160°34'1 1.0 1011.0 20.4
2016-Feb-06 12:00S 37°48' W 160°36'1 0.3 1011.4 20.4
2016-Feb-06 08:00S 37°47' W 160°37'0 0.2 1013.1 20.4
2016-Feb-06 07:00S 37°47' W 160°37'0 0.2 1013.0 20.4
2016-Feb-06 05:00S 37°46' W 160°36'1 0.5 1012.0 20.5
2016-Feb-06 03:00S 37°46' W 160°38'0 0.0 1012.6 20.4
2016-Feb-06 02:00S 37°46' W 160°38'0 0.0 1013.2 20.4
2016-Feb-06 01:00S 37°46' W 160°38'1 0.1 1013.8 20.4
2016-Feb-05 20:00S 37°46' W 160°38'1 0.7 1015.5 20.3
2016-Feb-05 19:00S 37°45' W 160°39'1 0.9 1016.0 20.2
2016-Feb-05 18:00S 37°46' W 160°40'2 0.7 1015.8 20.2
2016-Feb-05 15:00S 37°44' W 160°39'0 0.0 1015.7 20.2
2016-Feb-05 14:00S 37°44' W 160°39'1 0.3 1015.9 20.2
2016-Feb-05 12:00S 37°43' W 160°40'1 0.3 1016.6 20.2
2016-Feb-05 09:00S 37°43' W 160°38'2 0.8 1017.9 20.3
2016-Feb-05 07:00S 37°43' W 160°40'2 0.2 1017.5 20.3
2016-Feb-05 00:00S 37°41' W 160°41'1 0.2 1017.7 20.3
2016-Feb-04 20:00S 37°41' W 160°41'1 0.9 1017.8 20.0
2016-Feb-04 19:00S 37°41' W 160°42'1 0.4 1017.7 20.0
2016-Feb-04 17:00S 37°41' W 160°41'1 0.7 1017.1 20.0
2016-Feb-04 16:00S 37°41' W 160°42'1 0.6 1016.9 20.0
2016-Feb-04 15:00S 37°40' W 160°41'0 0.0 1016.5 20.0
2016-Feb-04 14:00S 37°40' W 160°41'1 0.2 1016.5 20.0
2016-Feb-04 09:00S 37°39' W 160°42'0 0.1 1017.7 20.1
2016-Feb-04 06:00S 37°39' W 160°41'1 0.3 1016.7 20.2
2016-Feb-04 01:00S 37°39' W 160°43'1 0.1 1015.7 20.4
2016-Feb-03 16:00S 37°38' W 160°43'1 0.2 1015.1 19.8
2016-Feb-03 12:00S 37°37' W 160°43'0 0.4 1015.5 19.8
2016-Feb-03 11:00S 37°37' W 160°44'2 0.8 1016.0 19.8
2016-Feb-03 08:00S 37°37' W 160°41'2 0.2 1016.6 19.9
2016-Feb-02 18:00S 37°37' W 160°44'1 0.5 1018.1 19.8
2016-Feb-02 15:00S 37°35' W 160°45'0 0.1 1017.5 19.8
2016-Feb-02 12:00S 37°35' W 160°44'0 0.0 1018.0 19.8
2016-Feb-02 11:00S 37°35' W 160°44'1 0.3 1018.6 19.8
2016-Feb-02 09:00S 37°36' W 160°44'0 0.4 1019.5 19.8
2016-Feb-02 08:00S 37°36' W 160°44'2 0.5 1019.8 19.8
2016-Feb-02 04:00S 37°35' W 160°46'1 0.3 1018.4 19.8
2016-Feb-02 00:00S 37°34' W 160°46'1 0.3 1018.9 19.7
2016-Feb-01 20:00S 37°34' W 160°45'1 0.9 1019.7 19.5
2016-Feb-01 19:00S 37°34' W 160°45'0 0.1 1019.7 19.5
2016-Feb-01 17:00S 37°34' W 160°46'0 0.0 1019.0 19.5
2016-Feb-01 15:00S 37°34' W 160°46'0 0.0 1018.2 19.5
2016-Feb-01 14:00S 37°34' W 160°46'1 0.2 1017.8 19.5
2016-Feb-01 08:00S 37°33' W 160°47'1 0.9 1018.8 19.5
2016-Feb-01 07:00S 37°33' W 160°48'1 0.7 1017.9 19.6
2016-Feb-01 06:00S 37°33' W 160°47'1 0.5 1017.2 19.6
2016-Feb-01 05:00S 37°33' W 160°47'0 0.5 1016.6 19.6
2016-Feb-01 04:00S 37°32' W 160°46'0 0.0 1016.3 19.6
2016-Feb-01 03:00S 37°32' W 160°46'0 0.4 1016.4 19.6
2016-Feb-01 02:00S 37°32' W 160°47'0 0.1 1016.3 19.6
2016-Feb-01 00:00S 37°32' W 160°47'1 0.3 1016.2 19.5
2016-Jan-31 20:00S 37°32' W 160°45'0 0.4 1016.3 19.4
2016-Jan-31 19:00S 37°32' W 160°46'2 0.5 1016.2 19.4
2016-Jan-31 16:00S 37°33' W 160°48'0 0.0 1015.3 19.4
2016-Jan-31 14:00S 37°33' W 160°48'1 0.7 1015.0 19.4
2016-Jan-31 12:00S 37°32' W 160°49'1 0.1 1015.8 19.4
2016-Jan-31 08:00S 37°32' W 160°49'1 0.6 1017.3 19.5
2016-Jan-31 07:00S 37°31' W 160°48'0 0.0 1017.1 19.5
2016-Jan-31 06:00S 37°31' W 160°48'1 0.6 1017.0 19.5
2016-Jan-31 05:00S 37°31' W 160°49'0 0.3 1017.1 19.5
2016-Jan-31 04:00S 37°31' W 160°49'0 0.0 1017.2 19.5
2016-Jan-31 03:00S 37°31' W 160°49'1 0.6 1017.7 19.6
2016-Jan-31 02:00S 37°31' W 160°49'0 0.4 1018.0 19.6
2016-Jan-31 01:00S 37°31' W 160°50'0 0.0 1018.4 19.6
2016-Jan-31 00:00S 37°31' W 160°50'0 0.0 1019.0 19.5
2016-Jan-30 17:00S 37°31' W 160°50'2 0.2 1021.1 19.5
2016-Jan-30 07:00S 37°29' W 160°50'0 0.2 1024.0 19.7
2016-Jan-30 05:00S 37°29' W 160°49'1 0.4 1023.9 19.8
2016-Jan-30 02:00S 37°30' W 160°50'2 0.3 1024.4 20.2
2016-Jan-29 20:00S 37°29' W 160°51'1 0.9 1026.7 19.3
2016-Jan-29 19:00S 37°29' W 160°53'0 0.0 1027.1 19.3
2016-Jan-29 18:00S 37°29' W 160°53'1 1.5 1027.1 19.2
2016-Jan-29 17:00S 37°28' W 160°51'1 0.6 1026.8 19.2
2016-Jan-29 16:00S 37°27' W 160°51'0 0.0 1026.7 19.3
2016-Jan-29 15:00S 37°27' W 160°51'   1026.6 19.3
Track history (hours):
 
Tides and Currents Weather Stations Pressure Air Temp Water Temp Dewpoint Dewpoint Depression Visibility Wind Speed Wind Dir Waves Ship Positions

Luruyu54955

Last reported at 2016-Feb-08 12:00 UTC. Time now 2016-Feb-08 14:27 UTC.
Position S 37°56' W 160°29'.

Length 27 m.

Type: Fishing. MMSI: 412330945.

Barometer 1007.9 mb
Water temperature 20.6 ° C

Date/timePositionNaut miles runAvg speedWind from/ knotsBaromVisibWave heightAir tempDewpointWater temp
2016-Feb-08 12:00S 37°56' W 160°29'1 0.2 1007.9 20.6
2016-Feb-08 08:00S 37°55' W 160°29'1 1.0 1009.1 20.6
2016-Feb-08 07:00S 37°54' W 160°30'1 0.5 1009.3 20.6
2016-Feb-08 06:00S 37°54' W 160°30'1 0.6 1008.8 20.6
2016-Feb-08 04:00S 37°54' W 160°31'1 1.2 1008.6 20.7
2016-Feb-08 03:00S 37°53' W 160°30'0 0.0 1009.0 20.7
2016-Feb-08 02:00S 37°53' W 160°30'1 0.9 1009.1 20.7
2016-Feb-08 01:00S 37°53' W 160°29'0 0.0 1009.3 20.7
2016-Feb-08 00:00S 37°53' W 160°29'1 0.3 1009.5 20.6
2016-Feb-07 19:00S 37°51' W 160°29'1 0.6 1011.0 20.5
2016-Feb-07 18:00S 37°52' W 160°29'0 0.3 1010.7 20.5
2016-Feb-07 17:00S 37°52' W 160°29'1 0.7 1010.6 20.5
2016-Feb-07 15:00S 37°52' W 160°31'0 0.0 1010.2 20.5
2016-Feb-07 14:00S 37°52' W 160°31'2 0.5 1009.7 20.5
2016-Feb-07 10:00S 37°51' W 160°33'2 0.6 1010.1 20.5
2016-Feb-07 07:00S 37°49' W 160°32'0 0.0 1010.0 20.6
2016-Feb-07 06:00S 37°49' W 160°32'0 0.4 1009.3 20.7
2016-Feb-07 05:00S 37°49' W 160°32'1 0.4 1008.9 20.7
2016-Feb-07 03:00S 37°49' W 160°31'0 0.4 1008.8 21.0
2016-Feb-07 02:00S 37°49' W 160°31'0 0.3 1008.8 21.2
2016-Feb-07 01:00S 37°49' W 160°31'2 0.4 1009.0 21.1
2016-Feb-06 20:00S 37°50' W 160°33'2 0.9 1009.8 20.5
2016-Feb-06 18:00S 37°50' W 160°35'1 1.1 1010.3 20.4
2016-Feb-06 17:00S 37°48' W 160°35'0 0.2 1009.6 20.4
2016-Feb-06 16:00S 37°48' W 160°35'1 1.0 1009.7 20.4
2016-Feb-06 15:00S 37°47' W 160°35'1 1.0 1009.6 20.4
2016-Feb-06 14:00S 37°48' W 160°34'0 0.0 1009.9 20.4
2016-Feb-06 13:00S 37°48' W 160°34'1 1.0 1011.0 20.4
2016-Feb-06 12:00S 37°48' W 160°36'1 0.3 1011.4 20.4
2016-Feb-06 08:00S 37°47' W 160°37'0 0.2 1013.1 20.4
2016-Feb-06 07:00S 37°47' W 160°37'0 0.2 1013.0 20.4
2016-Feb-06 05:00S 37°46' W 160°36'1 0.5 1012.0 20.5
2016-Feb-06 03:00S 37°46' W 160°38'0 0.0 1012.6 20.4
2016-Feb-06 02:00S 37°46' W 160°38'0 0.0 1013.2 20.4
2016-Feb-06 01:00S 37°46' W 160°38'1 0.1 1013.8 20.4
2016-Feb-05 20:00S 37°46' W 160°38'1 0.7 1015.5 20.3
2016-Feb-05 19:00S 37°45' W 160°39'1 0.9 1016.0 20.2
2016-Feb-05 18:00S 37°46' W 160°40'2 0.7 1015.8 20.2
2016-Feb-05 15:00S 37°44' W 160°39'0 0.0 1015.7 20.2
2016-Feb-05 14:00S 37°44' W 160°39'1 0.3 1015.9 20.2
2016-Feb-05 12:00S 37°43' W 160°40'1 0.3 1016.6 20.2
2016-Feb-05 09:00S 37°43' W 160°38'2 0.8 1017.9 20.3
2016-Feb-05 07:00S 37°43' W 160°40'2 0.2 1017.5 20.3
2016-Feb-05 00:00S 37°41' W 160°41'1 0.2 1017.7 20.3
2016-Feb-04 20:00S 37°41' W 160°41'1 0.9 1017.8 20.0
2016-Feb-04 19:00S 37°41' W 160°42'1 0.4 1017.7 20.0
2016-Feb-04 17:00S 37°41' W 160°41'1 0.7 1017.1 20.0
2016-Feb-04 16:00S 37°41' W 160°42'1 0.6 1016.9 20.0
2016-Feb-04 15:00S 37°40' W 160°41'0 0.0 1016.5 20.0
2016-Feb-04 14:00S 37°40' W 160°41'1 0.2 1016.5 20.0
2016-Feb-04 09:00S 37°39' W 160°42'0 0.1 1017.7 20.1
2016-Feb-04 06:00S 37°39' W 160°41'1 0.3 1016.7 20.2
2016-Feb-04 01:00S 37°39' W 160°43'1 0.1 1015.7 20.4
2016-Feb-03 16:00S 37°38' W 160°43'1 0.2 1015.1 19.8
2016-Feb-03 12:00S 37°37' W 160°43'0 0.4 1015.5 19.8
2016-Feb-03 11:00S 37°37' W 160°44'2 0.8 1016.0 19.8
2016-Feb-03 08:00S 37°37' W 160°41'2 0.2 1016.6 19.9
2016-Feb-02 18:00S 37°37' W 160°44'1 0.5 1018.1 19.8
2016-Feb-02 15:00S 37°35' W 160°45'0 0.1 1017.5 19.8
2016-Feb-02 12:00S 37°35' W 160°44'0 0.0 1018.0 19.8
2016-Feb-02 11:00S 37°35' W 160°44'1 0.3 1018.6 19.8
2016-Feb-02 09:00S 37°36' W 160°44'0 0.4 1019.5 19.8
2016-Feb-02 08:00S 37°36' W 160°44'2 0.5 1019.8 19.8
2016-Feb-02 04:00S 37°35' W 160°46'1 0.3 1018.4 19.8
2016-Feb-02 00:00S 37°34' W 160°46'1 0.3 1018.9 19.7
2016-Feb-01 20:00S 37°34' W 160°45'1 0.9 1019.7 19.5
2016-Feb-01 19:00S 37°34' W 160°45'0 0.1 1019.7 19.5
2016-Feb-01 17:00S 37°34' W 160°46'0 0.0 1019.0 19.5
2016-Feb-01 15:00S 37°34' W 160°46'0 0.0 1018.2 19.5
2016-Feb-01 14:00S 37°34' W 160°46'1 0.2 1017.8 19.5
2016-Feb-01 08:00S 37°33' W 160°47'1 0.9 1018.8 19.5
2016-Feb-01 07:00S 37°33' W 160°48'1 0.7 1017.9 19.6
2016-Feb-01 06:00S 37°33' W 160°47'1 0.5 1017.2 19.6
2016-Feb-01 05:00S 37°33' W 160°47'0 0.5 1016.6 19.6
2016-Feb-01 04:00S 37°32' W 160°46'0 0.0 1016.3 19.6
2016-Feb-01 03:00S 37°32' W 160°46'0 0.4 1016.4 19.6
2016-Feb-01 02:00S 37°32' W 160°47'0 0.1 1016.3 19.6
2016-Feb-01 00:00S 37°32' W 160°47'1 0.3 1016.2 19.5
2016-Jan-31 20:00S 37°32' W 160°45'0 0.4 1016.3 19.4
2016-Jan-31 19:00S 37°32' W 160°46'2 0.5 1016.2 19.4
2016-Jan-31 16:00S 37°33' W 160°48'0 0.0 1015.3 19.4
2016-Jan-31 14:00S 37°33' W 160°48'1 0.7 1015.0 19.4
2016-Jan-31 12:00S 37°32' W 160°49'1 0.1 1015.8 19.4
2016-Jan-31 08:00S 37°32' W 160°49'1 0.6 1017.3 19.5
2016-Jan-31 07:00S 37°31' W 160°48'0 0.0 1017.1 19.5
2016-Jan-31 06:00S 37°31' W 160°48'1 0.6 1017.0 19.5
2016-Jan-31 05:00S 37°31' W 160°49'0 0.3 1017.1 19.5
2016-Jan-31 04:00S 37°31' W 160°49'0 0.0 1017.2 19.5
2016-Jan-31 03:00S 37°31' W 160°49'1 0.6 1017.7 19.6
2016-Jan-31 02:00S 37°31' W 160°49'0 0.4 1018.0 19.6
2016-Jan-31 01:00S 37°31' W 160°50'0 0.0 1018.4 19.6
2016-Jan-31 00:00S 37°31' W 160°50'0 0.0 1019.0 19.5
2016-Jan-30 17:00S 37°31' W 160°50'2 0.2 1021.1 19.5
2016-Jan-30 07:00S 37°29' W 160°50'0 0.2 1024.0 19.7
2016-Jan-30 05:00S 37°29' W 160°49'1 0.4 1023.9 19.8
2016-Jan-30 02:00S 37°30' W 160°50'2 0.3 1024.4 20.2
2016-Jan-29 20:00S 37°29' W 160°51'1 0.9 1026.7 19.3
2016-Jan-29 19:00S 37°29' W 160°53'0 0.0 1027.1 19.3
2016-Jan-29 18:00S 37°29' W 160°53'1 1.5 1027.1 19.2
2016-Jan-29 17:00S 37°28' W 160°51'1 0.6 1026.8 19.2
2016-Jan-29 16:00S 37°27' W 160°51'0 0.0 1026.7 19.3
2016-Jan-29 15:00S 37°27' W 160°51'   1026.6 19.3

Dump ship's entire track history